CheckWX is a tool to help pilots better visualize weather data.  It is not intended as a substitute for an official pre-flight weather briefing.

18:19:26 UTC

KLEB METAR
Lebanon Municipal Airport
Lebanon, New Hampshire, USA
Current

26 mins ago

KLEB 211753Z 36010KT 10SM SCT046 OVC060 31/19 A2972 RMK AO2 SLP049 T03110194 10328 20267 53006
Observed
Jul-21 @ 17:53 UTC
Wind
  • 360° at 10 KTS
Visibility
10 SM
Flight Rules
VFR
Cloud Levels
  • Scattered at 4,600' AGL
  • Overcast at 6,000' AGL
Temperature
31°C / 88°F
Dewpoint
19°C / 66°F
Heat Index
33°C / 91°F
Humidity
49%
Altimeter
29.72" Hg
Pressure
1006.42 hPa
Previous

1 hour ago

KLEB 211653Z 29005KT 10SM SCT050 BKN070 32/19 A2970 RMK AO2 SLP044 T03220194
Observed
Jul-21 @ 16:53 UTC
Wind
  • 290° at 5 KTS
Visibility
10 SM
Flight Rules
VFR
Cloud Levels
  • Scattered at 5,000' AGL
  • Broken at 7,000' AGL
Temperature
32°C / 90°F
Dewpoint
19°C / 66°F
Heat Index
34°C / 93°F
Humidity
46%
Altimeter
29.7" Hg
Pressure
1005.72 hPa
Previous

2 hours ago

KLEB 211553Z 30012G21KT 10SM BKN049 32/19 A2971 RMK AO2 SLP044 T03220189
Observed
Jul-21 @ 15:53 UTC
Wind
  • 300° at 12 KTS
  • Gusting to 21 KTS
Visibility
10 SM
Flight Rules
VFR
Cloud Levels
  • Broken at 4,900' AGL
Temperature
32°C / 90°F
Dewpoint
19°C / 66°F
Heat Index
34°C / 93°F
Humidity
46%
Altimeter
29.71" Hg
Pressure
1006.12 hPa